AirNav   Get $300 off a Bose A20
 
 1583 users online  

CA30 Manclark Airway Heliport
Costa Mesa, California, USA


FAA INFORMATION EFFECTIVE 25 APRIL 2019

Location

FAA Identifier: CA30
Lat/Long: 33-40-30.1000N / 117-52-23.4000W
33-40.501667N / 117-52.390000W
33.6750278 / -117.8731667
(estimated)
Elevation: 77 ft. / 23 m (estimated)
From city: 3 miles NE of COSTA MESA, CA
Time zone: UTC -7 (UTC -8 during Standard Time)
Zip code: 92707

Heliport Operations

Heliport use: Private use. Permission required prior to landing
Activation date: 01/2018
Control tower: no
ARTCC: LOS ANGELES CENTER
FSS: SAN DIEGO FLIGHT SERVICE STATION
Attendance: IREG
Wind indicator: lighted
Segmented circle: no
Lights: ACTIVATE PERI LGTS 123.05.

Heliport Communications

WX ASOS at SNA (0.2 nm E): PHONE 714-424-0590
WX ASOS at FUL (13 nm NW): PHONE 714-870-1372
WX ASOS at LGB (16 nm NW): PHONE 562-424-0572
WX AWOS-3PT at AJO (19 nm NE): 132.175 (951-340-4764)

Nearby radio navigation aids

VOR radial/distance  VOR name  Freq  Var
ELBr256/7.1EL TORO VOR/DME117.2014E
SLIr111/11.1SEAL BEACH VORTAC115.7015E
PDZr215/22.5PARADISE VORTAC112.2015E
POMr175/24.6POMONA VORTAC110.4015E
RALr217/(27.0)RIVERSIDE VOR112.4014E
LAXr104/31.9LOS ANGELES VORTAC113.6015E
SXCr042/32.7SANTA CATALINA VORTAC111.4015E
OCNr304/34.6OCEANSIDE VORTAC115.3015E
HDFr246/(34.9)HOMELAND VOR113.4014E
SMOr110/35.4SANTA MONICA VOR/DME110.8015E

Heliport Services

Runway Information

Helipad H1

Dimensions: 37 x 37 ft. / 11 x 11 m
DESIGN ACFT AIRBUS H145.
Surface: concrete, in good condition
Runway edge lights: PERI
Runway edge markings: STD HELI MARKINGS
Latitude: 33-40.501667N
Longitude: 117-52.390000W
Elevation: 77.0 ft.
Traffic pattern: leftleft
Markings: , in good condition

Heliport Ownership and Management from official FAA records

Ownership: Privately-owned
Owner: MANCLARK AIRWAY LLC
3132 AIRWAY AVENUE
COSTA MESA, CA 92626
Phone 949-205-9988
Manager: MIKE MANCLARK
3132 AIRWAY AVENUE
COSTA MESA, CA 92626
Phone 949-205-9988

Instrument Procedures

There are no published instrument procedures at CA30.

Some nearby airports with instrument procedures:

KSNA - John Wayne-Orange County Airport (0 nm E)
KSLI - Los Alamitos Army Airfield (11 nm NW)
KFUL - Fullerton Municipal Airport (13 nm NW)
KLGB - Long Beach Airport (Daugherty Field) (16 nm NW)
KAJO - Corona Municipal Airport (19 nm NE)
 
Loc | Ops | Rwys | IFR | FBO | Links
Com | Nav | Svcs | Stats | Notes
Aerial photo
No photo
 
Airport distance calculator
Flying to Manclark Airway Heliport? Find the distance to fly.

From to CA30

Sunrise and sunset
Times for 21-May-2019
 Local
(UTC-7)
 Zulu
(UTC)
Morning civil twilight05:2012:20
Sunrise05:4812:48
Sunset19:4802:48
Evening civil twilight20:1603:16

Current date and time
Zulu (UTC)  21-May-2019 16:00:35
Local (UTC-7)  21-May-2019 09:00:35
 
METAR
KSNA 211553Z 21009KT 10SM FEW023 BKN042 16/10 A2993 RMK AO2 SLP133 T01610100
KSLI 
10nm NW 
211458Z 14005KT 10SM BKN017 OVC022 16/11 A2993 RMK AO2A SLP138 T01570109 58003
KFUL 
13nm NW 
211553Z 20007KT 10SM BKN024 BKN030 OVC038 16/09 A2991 RMK AO2 SLP127 T01610094
KLGB 
16nm NW 
211553Z 20006KT 10SM OVC023 16/10 A2993 RMK AO2 SLP133 T01610100
KAJO 
19nm NE 
211456Z AUTO 29005KT 10SM OVC047 14/09 A2993 RMK AO2 SLP145 6//// T01390089 58006 PNO $
TAF
KSNA 211129Z 2112/2212 12005KT P6SM SCT023 SCT040 FM211800 23010G18KT P6SM SCT025 BKN035 FM220400 25006KT P6SM BKN025
KSLI 
10nm NW 
211300Z 2113/2219 VRB06KT 9999 OVC040 QNH2992INS BECMG 2115/2116 26012G18KT 9999 VCSH SCT015 BKN030 QNH2974INS TEMPO 2119/2203 26015G25KT 510009 BECMG 2203/2204 26012G18KT 9999 NSW BKN040 QNH2974INS BECMG 2206/2207 VRB06KT 9999 SCT030 BKN050 QNH2970INS TX17/2121Z TN14/2113Z
KLGB 
16nm NW 
211257Z 2113/2212 VRB03KT P6SM BKN025 OVC040 FM211600 22012KT P6SM FEW025 BKN050 FM212000 25014G22KT P6SM SCT050 BKN200 FM220200 30015G25KT P6SM SCT050 BKN200 FM220800 31010KT P6SM SCT050 BKN200
NOTAMs
Click for the latest NOTAMs
NOTAMs are issued by the DoD/FAA and will open in a separate window not controlled by AirNav.

 

 
 

Would you like to see your business listed on this page?

 If your business provides an interesting product or service to pilots, flight crews, aircraft, or users of the Manclark Airway Heliport, you should consider listing it here.  To start the listing process, click on the button below
 
Add a business
 

Other Pages about Manclark Airway Heliport

Update a link
 
Copyright © AirNav, LLC. All rights reserved. Privacy Policy  Contact